Página principal
METAR-TAF:

METAR-TAF

Aeroportos :

Aeroporto Internacional de Sunan

Pyongyang, Coreia do Norte

latitude: 39-02N, longitude: 125-47E, altura: 36 m

METAR: em falta

Hora: 07:49 (23:19 UTC)

Previsão

O boletim foi feito há 19 horas e 4 minutos, às 04:15 UTC
Previsão válida de 16 às 06 UTC a 17 às 06 UTC
Vento 8 kt de sudeste
Visibilidade 10 km ou mais
Nuvens fragmentadasa uma altura de 2000 ft
Temporariamente
de 16 às 11 UTC a 16 às 18 UTC
Visibilidade: 4000 m
Encobertoa uma altura de 1300 ft
chuva fraca

TAF: ZKPY 160415Z 1606/1706 13004MPS 9999 BKN020 TX30/1606Z TN21/1621Z TEMPO 1611/1618 4000 -RA OVC013

Observações e previsões do tempo de mais de 4000 aeroportos (mensagens METAR e TAF).

As estações disponíveis são os pontos amarelos e vermelhos sobre o mapa.

Mova o rato sobre o mapa para ver o nome da estação.

Depois clique no ponto para visualizar as observações e previsões meteorológicas.

Para alterar o mapa : clique nos botões verdes com uma cruz preta para aumentar o zoom; no botão verde com uma pitada de zoom; ou nas setas verdes para mapas adjacentes.


METAR-TAF: